Time;durP1;ratioP1;P1;durP2;ratioP2;P2;SDS_P1;SDS_P2;PMS_P1;PMS_P2;Temp;Humidity;BMP_temperature;BMP_pressure;BME280_temperature;BME280_humidity;BME280_pressure;Samples;Min_cycle;Max_cycle;Signal;HPM_P1;HPM_P2
2023/04/12 00:00:16;;;;;;;30.73;8.85;;;1.90;100.00;;;;;;5049930;28;20057;-80
2023/04/12 00:02:43;;;;;;;24.70;7.65;;;1.80;100.00;;;;;;5049404;28;20053;-79
2023/04/12 00:05:10;;;;;;;26.35;8.00;;;1.70;100.00;;;;;;5047202;28;20049;-79
2023/04/12 00:07:38;;;;;;;21.60;6.97;;;1.70;100.00;;;;;;5068632;28;20044;-80
2023/04/12 00:10:07;;;;;;;32.97;8.57;;;1.60;100.00;;;;;;5065900;28;20159;-80
2023/04/12 00:12:33;;;;;;;29.27;7.85;;;1.50;100.00;;;;;;5052441;28;20072;-79
2023/04/12 00:15:00;;;;;;;37.88;8.63;;;1.50;100.00;;;;;;5053188;28;20045;-79
2023/04/12 00:17:27;;;;;;;32.88;8.77;;;1.50;100.00;;;;;;5070078;28;20044;-79
2023/04/12 00:19:54;;;;;;;22.67;8.65;;;1.50;100.00;;;;;;5048507;28;20071;-79
2023/04/12 00:22:21;;;;;;;26.75;8.30;;;1.50;100.00;;;;;;5049123;28;20044;-79
2023/04/12 00:24:48;;;;;;;23.70;8.48;;;1.50;100.00;;;;;;5052717;28;20047;-80
2023/04/12 00:27:15;;;;;;;22.77;7.43;;;1.50;100.00;;;;;;5052258;28;20055;-79
2023/04/12 00:29:42;;;;;;;36.53;8.02;;;1.40;100.00;;;;;;5070513;28;20056;-79
2023/04/12 00:32:09;;;;;;;23.38;8.35;;;1.40;100.00;;;;;;5059607;28;20049;-79
2023/04/12 00:34:35;;;;;;;21.70;8.55;;;1.30;100.00;;;;;;5051415;28;20048;-77
2023/04/12 00:37:02;;;;;;;30.15;6.90;;;1.40;100.00;;;;;;5052407;28;20040;-77
2023/04/12 00:39:29;;;;;;;9.82;4.53;;;1.30;100.00;;;;;;5069972;28;20052;-78
2023/04/12 00:41:56;;;;;;;15.95;5.13;;;1.20;100.00;;;;;;5051882;28;20098;-78
2023/04/12 00:44:23;;;;;;;11.68;4.38;;;1.10;100.00;;;;;;5049491;28;20681;-78
2023/04/12 00:46:50;;;;;;;22.90;5.95;;;1.10;100.00;;;;;;5058956;28;20455;-77
2023/04/12 00:49:17;;;;;;;21.98;6.15;;;1.00;100.00;;;;;;5046403;28;20052;-78
2023/04/12 00:51:44;;;;;;;30.33;7.63;;;1.00;100.00;;;;;;5067234;28;20056;-78
2023/04/12 00:54:13;;;;;;;20.42;7.45;;;1.00;100.00;;;;;;5050574;28;20080;-77
2023/04/12 00:56:40;;;;;;;17.30;6.65;;;1.10;100.00;;;;;;5055374;28;20695;-77
2023/04/12 00:59:07;;;;;;;30.55;7.97;;;1.10;100.00;;;;;;5050637;28;20040;-78
2023/04/12 01:01:34;;;;;;;23.77;7.50;;;1.10;100.00;;;;;;5068894;28;20101;-78
2023/04/12 01:04:03;;;;;;;29.77;8.15;;;1.20;100.00;;;;;;5053295;28;20048;-78
2023/04/12 01:06:40;;;;;;;32.97;7.88;;;1.20;100.00;;;;;;5068857;28;20060;-78
2023/04/12 01:09:34;;;;;;;25.88;8.32;;;1.30;100.00;;;;;;5049001;28;20052;-77
2023/04/12 01:12:31;;;;;;;27.17;7.90;;;1.30;100.00;;;;;;5046156;28;20059;-77
2023/04/12 01:15:11;;;;;;;31.60;8.52;;;1.20;100.00;;;;;;5054136;28;20048;-78
2023/04/12 01:17:56;;;;;;;40.63;8.45;;;1.20;100.00;;;;;;5065413;28;20055;-78
2023/04/12 01:20:30;;;;;;;22.83;8.30;;;1.20;100.00;;;;;;5070047;28;20127;-78
2023/04/12 01:23:22;;;;;;;22.02;8.38;;;1.20;100.00;;;;;;5057332;28;20739;-78
2023/04/12 01:25:59;;;;;;;30.13;8.73;;;1.20;100.00;;;;;;5050686;28;20044;-78
2023/04/12 01:28:32;;;;;;;39.00;8.68;;;1.20;100.00;;;;;;5060584;28;20160;-77
2023/04/12 01:31:05;;;;;;;28.67;8.50;;;1.20;100.00;;;;;;5051277;28;20054;-77
2023/04/12 01:33:35;;;;;;;32.92;8.45;;;1.10;100.00;;;;;;5052750;28;20044;-78
2023/04/12 01:36:10;;;;;;;27.75;7.97;;;1.10;100.00;;;;;;5052128;28;20048;-77
2023/04/12 01:38:42;;;;;;;25.25;8.35;;;1.10;100.00;;;;;;5050319;28;20055;-77
2023/04/12 01:41:09;;;;;;;31.95;8.73;;;1.10;100.00;;;;;;5051286;28;20040;-77
2023/04/12 01:43:44;;;;;;;26.35;8.82;;;1.00;100.00;;;;;;5050366;28;20076;-77
2023/04/12 01:46:17;;;;;;;38.45;9.98;;;1.00;100.00;;;;;;5054198;28;20048;-77
2023/04/12 01:48:51;;;;;;;40.97;9.60;;;1.00;100.00;;;;;;5054137;28;20057;-77
2023/04/12 01:51:41;;;;;;;29.73;8.57;;;1.00;100.00;;;;;;5054340;28;20076;-78
2023/04/12 01:54:12;;;;;;;25.80;9.30;;;1.00;100.00;;;;;;5015841;28;20538;-78
2023/04/12 01:56:44;;;;;;;34.15;8.60;;;0.90;100.00;;;;;;5052362;28;20052;-77
2023/04/12 01:59:14;;;;;;;35.50;8.70;;;0.90;100.00;;;;;;5055422;28;20037;-77
2023/04/12 02:01:43;;;;;;;44.75;9.60;;;0.90;100.00;;;;;;5061063;28;20045;-77
2023/04/12 02:04:11;;;;;;;24.67;8.38;;;0.90;100.00;;;;;;5054529;28;20135;-77
2023/04/12 02:06:39;;;;;;;32.47;8.32;;;0.90;100.00;;;;;;5044824;28;20764;-77
2023/04/12 02:09:06;;;;;;;23.05;7.63;;;0.90;100.00;;;;;;5054111;28;20062;-78
2023/04/12 02:11:33;;;;;;;43.88;9.18;;;0.90;100.00;;;;;;5054176;28;20049;-78
2023/04/12 02:14:00;;;;;;;32.67;8.38;;;0.90;100.00;;;;;;5054281;28;20086;-78
2023/04/12 02:16:31;;;;;;;21.27;7.35;;;0.90;100.00;;;;;;5071378;28;20058;-77
2023/04/12 02:18:58;;;;;;;28.00;7.20;;;0.90;100.00;;;;;;5062239;28;20076;-78
2023/04/12 02:21:26;;;;;;;28.58;7.70;;;0.90;100.00;;;;;;5057134;28;20132;-79
2023/04/12 02:23:53;;;;;;;29.35;6.90;;;0.80;100.00;;;;;;5054748;28;20094;-77
2023/04/12 02:26:22;;;;;;;21.60;6.65;;;0.80;100.00;;;;;;5072739;28;20125;-78
2023/04/12 02:28:49;;;;;;;23.00;6.95;;;0.60;100.00;;;;;;5053751;28;20052;-78
2023/04/12 02:31:16;;;;;;;21.30;6.53;;;0.50;100.00;;;;;;5053782;28;20491;-78
2023/04/12 02:33:44;;;;;;;27.45;5.90;;;0.40;100.00;;;;;;5049700;28;20523;-77
2023/04/12 02:36:11;;;;;;;22.25;6.47;;;0.40;100.00;;;;;;5054631;28;20127;-77
2023/04/12 02:38:38;;;;;;;19.27;6.10;;;0.30;100.00;;;;;;5054771;28;20055;-77
2023/04/12 02:41:05;;;;;;;17.92;5.43;;;0.20;100.00;;;;;;5053052;28;20048;-77
2023/04/12 02:43:32;;;;;;;20.20;6.05;;;0.10;100.00;;;;;;5070843;28;20620;-77
2023/04/12 02:45:59;;;;;;;23.42;5.45;;;0.00;100.00;;;;;;5057970;28;20056;-77
2023/04/12 02:48:26;;;;;;;15.52;5.22;;;0.00;100.00;;;;;;5053748;28;20056;-78
2023/04/12 02:50:53;;;;;;;13.88;5.22;;;0.00;100.00;;;;;;5053619;28;20045;-77
2023/04/12 02:53:20;;;;;;;13.88;5.10;;;0.00;100.00;;;;;;5051916;28;20048;-77
2023/04/12 02:55:47;;;;;;;14.98;5.07;;;-0.10;100.00;;;;;;5057507;28;20041;-77
2023/04/12 02:58:14;;;;;;;18.20;5.43;;;-0.20;100.00;;;;;;5070420;28;20037;-77
2023/04/12 03:00:42;;;;;;;14.27;5.30;;;-0.20;100.00;;;;;;5053007;28;20049;-77
2023/04/12 03:03:09;;;;;;;14.80;5.43;;;-0.30;100.00;;;;;;5069448;28;20040;-77
2023/04/12 03:05:36;;;;;;;11.98;5.50;;;-0.30;100.00;;;;;;5053421;28;20105;-77
2023/04/12 03:08:03;;;;;;;23.92;5.97;;;-0.30;100.00;;;;;;5053390;28;20059;-77
2023/04/12 03:10:30;;;;;;;13.23;5.22;;;-0.40;100.00;;;;;;5047633;28;20055;-77
2023/04/12 03:12:57;;;;;;;26.17;6.25;;;-0.40;100.00;;;;;;5044667;28;20080;-76
2023/04/12 03:15:24;;;;;;;14.90;5.43;;;-0.40;100.00;;;;;;5054677;28;20063;-77
2023/04/12 03:17:51;;;;;;;18.13;5.85;;;-0.40;100.00;;;;;;5049848;28;20083;-77
2023/04/12 03:20:19;;;;;;;28.75;6.85;;;-0.40;100.00;;;;;;5066481;28;20537;-77
2023/04/12 03:22:46;;;;;;;25.33;5.95;;;-0.40;100.00;;;;;;5056532;28;20041;-77
2023/04/12 03:25:13;;;;;;;15.10;5.45;;;-0.40;100.00;;;;;;5051974;28;20060;-77
2023/04/12 03:27:39;;;;;;;13.75;6.05;;;-0.50;100.00;;;;;;5052536;28;20732;-77
2023/04/12 03:30:07;;;;;;;23.48;5.63;;;-0.50;100.00;;;;;;5070707;28;20049;-78
2023/04/12 03:32:34;;;;;;;16.02;5.55;;;-0.50;100.00;;;;;;5055290;28;20062;-78
2023/04/12 03:35:02;;;;;;;21.33;7.32;;;-0.50;100.00;;;;;;5052993;28;20105;-78
2023/04/12 03:37:29;;;;;;;23.40;7.22;;;-0.50;100.00;;;;;;5071117;28;20052;-78
2023/04/12 03:39:56;;;;;;;18.45;7.22;;;-0.40;100.00;;;;;;5052909;28;20044;-78
2023/04/12 03:42:22;;;;;;;23.10;6.80;;;-0.40;100.00;;;;;;5051893;28;20057;-77
2023/04/12 03:45:00;;;;;;;31.83;6.57;;;-0.40;100.00;;;;;;5047127;28;20051;-78
2023/04/12 03:47:26;;;;;;;17.45;6.55;;;-0.50;100.00;;;;;;5052508;28;20048;-78
2023/04/12 03:50:09;;;;;;;17.17;6.38;;;-0.50;100.00;;;;;;5052942;28;20068;-78
2023/04/12 03:52:38;;;;;;;20.88;6.28;;;-0.50;100.00;;;;;;5051072;28;20052;-77
2023/04/12 03:55:06;;;;;;;19.65;6.65;;;-0.50;100.00;;;;;;5070547;28;20056;-78
2023/04/12 03:57:34;;;;;;;34.10;6.80;;;-0.50;100.00;;;;;;5052016;28;20076;-78
2023/04/12 04:00:01;;;;;;;35.65;7.60;;;-0.50;100.00;;;;;;5070080;28;20048;-77
2023/04/12 04:02:28;;;;;;;30.75;6.38;;;-0.40;100.00;;;;;;5049623;28;20385;-78
2023/04/12 04:04:56;;;;;;;30.40;6.57;;;-0.40;100.00;;;;;;5048933;28;20111;-78
2023/04/12 04:07:23;;;;;;;18.45;7.43;;;-0.40;100.00;;;;;;5047698;28;20068;-77
2023/04/12 04:09:49;;;;;;;23.23;7.53;;;-0.30;100.00;;;;;;5066602;28;20083;-77
2023/04/12 04:12:16;;;;;;;21.20;7.43;;;-0.40;100.00;;;;;;5050565;28;20044;-77
2023/04/12 04:14:43;;;;;;;18.10;6.93;;;-0.40;100.00;;;;;;5051983;28;20044;-78
2023/04/12 04:17:10;;;;;;;21.45;7.47;;;-0.30;100.00;;;;;;5069045;28;20048;-77
2023/04/12 04:19:37;;;;;;;35.17;7.15;;;-0.30;100.00;;;;;;5069055;28;20060;-78
2023/04/12 04:22:04;;;;;;;29.45;6.13;;;-0.40;100.00;;;;;;5054944;28;20052;-78
2023/04/12 04:24:33;;;;;;;17.25;6.75;;;-0.30;100.00;;;;;;5051379;28;20055;-78
2023/04/12 04:26:59;;;;;;;21.90;6.95;;;-0.30;100.00;;;;;;5053608;28;20838;-78
2023/04/12 04:29:28;;;;;;;19.02;6.35;;;-0.30;100.00;;;;;;5068885;28;20052;-78
2023/04/12 04:31:56;;;;;;;19.45;6.50;;;-0.30;100.00;;;;;;5048282;28;20155;-78
2023/04/12 04:34:24;;;;;;;20.45;5.97;;;-0.40;100.00;;;;;;5044265;28;20071;-78
2023/04/12 04:36:51;;;;;;;18.08;6.38;;;-0.30;100.00;;;;;;5043861;28;20050;-77
2023/04/12 04:39:18;;;;;;;20.55;6.50;;;-0.30;100.00;;;;;;5049313;28;20477;-78
2023/04/12 04:41:45;;;;;;;18.58;6.30;;;-0.30;100.00;;;;;;5046202;28;20615;-78
2023/04/12 04:44:12;;;;;;;23.40;6.80;;;-0.30;100.00;;;;;;5056033;28;20083;-78
2023/04/12 04:46:39;;;;;;;20.58;5.65;;;-0.30;100.00;;;;;;5052025;28;20056;-78
2023/04/12 04:49:06;;;;;;;22.63;6.53;;;-0.30;100.00;;;;;;5052072;28;20394;-78
2023/04/12 04:51:32;;;;;;;29.25;6.60;;;-0.20;100.00;;;;;;5042397;28;20055;-78
2023/04/12 04:54:00;;;;;;;21.20;6.45;;;-0.20;100.00;;;;;;5068142;28;20576;-77
2023/04/12 04:56:28;;;;;;;20.13;6.53;;;-0.10;100.00;;;;;;5050796;28;20083;-78
2023/04/12 04:58:54;;;;;;;25.55;7.13;;;-0.10;100.00;;;;;;5050929;28;20072;-78
2023/04/12 05:01:26;;;;;;;18.98;6.88;;;0.00;100.00;;;;;;5066538;28;20045;-78
2023/04/12 05:03:54;;;;;;;25.90;6.85;;;0.00;100.00;;;;;;5045856;28;20146;-82
2023/04/12 05:06:22;;;;;;;32.65;8.15;;;0.10;100.00;;;;;;5051588;28;20127;-82
2023/04/12 05:08:51;;;;;;;35.45;8.00;;;0.10;100.00;;;;;;5050600;28;20532;-82
2023/04/12 05:11:18;;;;;;;23.67;7.88;;;0.20;100.00;;;;;;5051421;28;20076;-82
2023/04/12 05:13:45;;;;;;;25.20;7.80;;;0.20;100.00;;;;;;5051343;28;20049;-82
2023/04/12 05:16:12;;;;;;;24.73;6.72;;;0.30;100.00;;;;;;5048947;28;20056;-82
2023/04/12 05:18:39;;;;;;;21.42;7.47;;;0.40;100.00;;;;;;5050925;28;20052;-82
2023/04/12 05:21:06;;;;;;;20.85;7.43;;;0.50;100.00;;;;;;5055214;28;20052;-84
2023/04/12 05:23:41;;;;;;;29.40;7.60;;;0.60;100.00;;;;;;5055269;28;20143;-85
2023/04/12 05:26:08;;;;;;;24.80;7.65;;;0.70;100.00;;;;;;5063140;28;20424;-80
2023/04/12 05:28:35;;;;;;;22.73;8.00;;;0.90;100.00;;;;;;5075198;28;20079;-83
2023/04/12 05:31:01;;;;;;;32.65;9.02;;;0.90;100.00;;;;;;5055320;28;20044;-83
2023/04/12 05:33:28;;;;;;;35.33;9.00;;;1.00;100.00;;;;;;5055117;28;20643;-84
2023/04/12 05:35:58;;;;;;;25.55;8.07;;;1.10;100.00;;;;;;5055218;28;20052;-81
2023/04/12 05:38:26;;;;;;;40.90;8.85;;;1.20;100.00;;;;;;5067952;28;20052;-83
2023/04/12 05:40:57;;;;;;;26.88;8.70;;;1.30;100.00;;;;;;5062135;28;20094;-89
2023/04/12 05:43:24;;;;;;;28.90;9.00;;;1.30;100.00;;;;;;5059173;28;20588;-81
2023/04/12 05:45:51;;;;;;;31.80;8.45;;;1.40;100.00;;;;;;5064775;28;20480;-84
2023/04/12 05:48:20;;;;;;;24.05;9.07;;;1.50;100.00;;;;;;5054836;28;20138;-84
2023/04/12 05:50:51;;;;;;;27.67;7.57;;;1.60;100.00;;;;;;5053362;28;20045;-82
2023/04/12 05:53:18;;;;;;;18.52;6.32;;;1.80;100.00;;;;;;5055563;28;20070;-83
2023/04/12 05:55:45;;;;;;;18.58;7.35;;;2.00;100.00;;;;;;5073205;28;20063;-83
2023/04/12 05:58:12;;;;;;;25.25;7.35;;;2.10;100.00;;;;;;5072595;28;20696;-83
2023/04/12 06:00:42;;;;;;;23.15;7.18;;;2.30;100.00;;;;;;5056289;28;20607;-84
2023/04/12 06:03:10;;;;;;;23.85;7.13;;;2.50;100.00;;;;;;5069713;28;20044;-83
2023/04/12 06:05:37;;;;;;;18.15;6.63;;;2.60;100.00;;;;;;5054347;28;20052;-84
2023/04/12 06:08:05;;;;;;;30.20;6.75;;;2.80;100.00;;;;;;5051529;28;20098;-85
2023/04/12 06:10:32;;;;;;;25.02;6.47;;;2.90;100.00;;;;;;5071377;28;20065;-82
2023/04/12 06:12:59;;;;;;;21.58;6.47;;;3.10;100.00;;;;;;5051390;28;20132;-80
2023/04/12 06:15:25;;;;;;;18.33;7.10;;;3.20;100.00;;;;;;5063631;28;20056;-86
2023/04/12 06:17:52;;;;;;;28.83;8.10;;;3.30;100.00;;;;;;5053091;28;20043;-84
2023/04/12 06:20:19;;;;;;;32.80;8.20;;;3.40;100.00;;;;;;5072775;28;20040;-86
2023/04/12 06:22:46;;;;;;;33.10;8.55;;;3.60;100.00;;;;;;5053276;28;20135;-86
2023/04/12 06:25:15;;;;;;;39.22;10.13;;;3.80;100.00;;;;;;5054700;28;20048;-82
2023/04/12 06:27:42;;;;;;;22.75;8.05;;;4.10;100.00;;;;;;5071446;28;20044;-83
2023/04/12 06:30:10;;;;;;;29.60;9.20;;;4.50;100.00;;;;;;5072488;28;20047;-83
2023/04/12 06:32:37;;;;;;;20.55;7.78;;;4.90;100.00;;;;;;5054193;28;20083;-86
2023/04/12 06:35:04;;;;;;;21.50;8.77;;;5.30;100.00;;;;;;5072054;28;20049;-84
2023/04/12 06:37:31;;;;;;;30.55;7.57;;;5.90;100.00;;;;;;5054489;28;20045;-85
2023/04/12 06:39:58;;;;;;;22.67;7.30;;;6.30;98.30;;;;;;5072973;28;20051;-81
2023/04/12 06:42:25;;;;;;;26.60;7.20;;;6.80;96.60;;;;;;5071572;28;20571;-84
2023/04/12 06:44:52;;;;;;;20.52;6.68;;;7.30;92.30;;;;;;5071441;28;20123;-83
2023/04/12 06:47:21;;;;;;;16.30;5.40;;;7.90;90.10;;;;;;5060134;28;20040;-83
2023/04/12 06:49:50;;;;;;;17.10;5.00;;;8.40;85.80;;;;;;5054273;28;20048;-86
2023/04/12 06:52:22;;;;;;;12.43;4.57;;;8.90;85.80;;;;;;5056401;28;20049;-82
2023/04/12 06:54:49;;;;;;;21.60;5.68;;;9.50;81.20;;;;;;5071488;28;20123;-82
2023/04/12 06:57:16;;;;;;;13.70;4.07;;;9.90;79.40;;;;;;5052351;28;20056;-81
2023/04/12 06:59:43;;;;;;;11.88;3.65;;;10.30;76.10;;;;;;5050746;28;20052;-76
2023/04/12 07:02:10;;;;;;;12.13;3.58;;;10.50;77.10;;;;;;5050790;28;20051;-78
2023/04/12 07:04:37;;;;;;;10.57;3.35;;;10.90;74.10;;;;;;5046771;28;20045;-82
2023/04/12 07:07:05;;;;;;;9.68;2.92;;;11.30;73.70;;;;;;5048943;28;20052;-77
2023/04/12 07:09:32;;;;;;;9.90;2.80;;;11.70;72.10;;;;;;5050393;28;20119;-80
2023/04/12 07:12:01;;;;;;;7.45;3.03;;;12.10;70.20;;;;;;5051964;28;20036;-85
2023/04/12 07:14:28;;;;;;;9.95;3.08;;;12.60;68.20;;;;;;5069550;28;20048;-77
2023/04/12 07:16:54;;;;;;;8.45;2.10;;;13.00;67.30;;;;;;5063728;28;20279;-69
2023/04/12 07:19:21;;;;;;;18.55;3.60;;;13.40;66.20;;;;;;5062334;28;20044;-73
2023/04/12 07:21:51;;;;;;;10.20;2.35;;;14.00;64.60;;;;;;5046017;28;20040;-75
2023/04/12 07:24:18;;;;;;;10.75;2.60;;;14.30;62.90;;;;;;5066342;28;20464;-78
2023/04/12 07:26:45;;;;;;;17.40;3.38;;;14.70;61.40;;;;;;5050853;28;20721;-78
2023/04/12 07:29:12;;;;;;;10.00;2.15;;;15.20;60.20;;;;;;5048454;28;20067;-80
2023/04/12 07:31:40;;;;;;;5.35;1.67;;;15.40;61.10;;;;;;5048209;28;20052;-77
2023/04/12 07:34:07;;;;;;;6.03;1.50;;;15.60;60.60;;;;;;5048442;28;20132;-79
2023/04/12 07:36:34;;;;;;;7.40;1.85;;;15.70;57.60;;;;;;5046425;28;20080;-80
2023/04/12 07:39:01;;;;;;;8.52;1.70;;;16.10;58.40;;;;;;5049916;28;20492;-79
2023/04/12 07:41:28;;;;;;;11.07;2.22;;;16.00;59.80;;;;;;5067599;28;20577;-78
2023/04/12 07:43:55;;;;;;;9.18;1.83;;;16.10;59.60;;;;;;5047208;28;20044;-79
2023/04/12 07:46:22;;;;;;;4.82;1.70;;;16.40;57.50;;;;;;5048989;28;20051;-79
2023/04/12 07:48:50;;;;;;;5.38;1.50;;;16.90;56.60;;;;;;5050634;28;20090;-79
2023/04/12 07:51:17;;;;;;;8.50;1.55;;;17.30;57.40;;;;;;5051706;28;20048;-79
2023/04/12 07:53:47;;;;;;;7.43;1.50;;;17.80;55.40;;;;;;5047591;28;20492;-79
2023/04/12 07:56:14;;;;;;;10.27;1.85;;;17.90;53.30;;;;;;5066968;28;20076;-79
2023/04/12 07:58:41;;;;;;;3.65;1.30;;;18.10;53.90;;;;;;5046396;28;20140;-78
2023/04/12 08:01:10;;;;;;;5.38;1.40;;;18.40;52.30;;;;;;5047441;28;20052;-78
2023/04/12 08:03:37;;;;;;;7.75;1.70;;;18.40;52.40;;;;;;5047207;28;20131;-78
2023/04/12 08:06:05;;;;;;;12.65;1.83;;;18.50;51.90;;;;;;5050974;28;20052;-78
2023/04/12 08:08:32;;;;;;;4.93;1.33;;;18.70;50.80;;;;;;5048210;28;20052;-78
2023/04/12 08:11:01;;;;;;;12.30;1.38;;;18.40;51.30;;;;;;5048475;28;20056;-77
2023/04/12 08:13:28;;;;;;;6.35;1.20;;;18.60;51.10;;;;;;5048046;28;20052;-78
2023/04/12 08:15:55;;;;;;;11.65;1.60;;;18.80;52.90;;;;;;5063262;28;20055;-78
2023/04/12 08:18:22;;;;;;;4.05;0.95;;;19.10;49.60;;;;;;5044308;28;20048;-78
2023/04/12 08:20:49;;;;;;;6.05;1.17;;;19.20;48.80;;;;;;5059305;28;20052;-81
2023/04/12 08:23:16;;;;;;;12.23;1.90;;;19.00;50.50;;;;;;5058640;28;20995;-81
2023/04/12 08:25:43;;;;;;;3.55;1.00;;;19.20;48.10;;;;;;5045712;28;20103;-82
2023/04/12 08:28:09;;;;;;;8.40;1.20;;;19.30;48.60;;;;;;5068534;28;20399;-81
2023/04/12 08:30:37;;;;;;;4.65;1.42;;;18.90;50.30;;;;;;5047860;28;20048;-81
2023/04/12 08:33:04;;;;;;;19.55;3.22;;;19.30;51.10;;;;;;5067650;28;20131;-82
2023/04/12 08:35:31;;;;;;;7.68;1.58;;;19.50;49.10;;;;;;5049941;28;20056;-82
2023/04/12 08:38:06;;;;;;;31.13;4.60;;;19.90;48.30;;;;;;5068542;28;20036;-81
2023/04/12 08:40:34;;;;;;;8.20;1.50;;;19.80;47.90;;;;;;5048170;28;20097;-76
2023/04/12 08:43:04;;;;;;;6.13;1.55;;;19.80;47.30;;;;;;5045848;28;20429;-79
2023/04/12 08:45:33;;;;;;;15.65;1.77;;;20.10;47.30;;;;;;5059506;28;20044;-79
2023/04/12 08:48:02;;;;;;;5.38;1.30;;;20.10;47.30;;;;;;5061683;28;20045;-77
2023/04/12 08:50:30;;;;;;;4.72;1.38;;;20.30;47.00;;;;;;5043572;28;20128;-77
2023/04/12 08:52:59;;;;;;;5.50;1.30;;;20.70;47.90;;;;;;5061541;28;20493;-76
2023/04/12 08:55:27;;;;;;;19.85;2.10;;;21.20;45.70;;;;;;5061754;28;20053;-76
2023/04/12 08:57:55;;;;;;;6.45;1.40;;;20.70;45.30;;;;;;5060505;28;20040;-77
2023/04/12 09:00:23;;;;;;;7.68;1.42;;;20.40;44.90;;;;;;5062224;28;20050;-77
2023/04/12 09:02:49;;;;;;;6.18;1.90;;;20.70;47.40;;;;;;5048295;28;20051;-76
2023/04/12 09:05:19;;;;;;;8.48;1.83;;;21.20;46.00;;;;;;5046830;28;20045;-77
2023/04/12 09:07:46;;;;;;;6.70;1.50;;;21.50;45.60;;;;;;5042685;28;20856;-77
2023/04/12 09:10:31;;;;;;;7.50;1.67;;;21.50;44.70;;;;;;5040405;28;20056;-77
2023/04/12 09:12:59;;;;;;;6.30;1.05;;;21.90;43.40;;;;;;5061374;28;20045;-77
2023/04/12 09:15:27;;;;;;;13.57;2.05;;;21.50;44.20;;;;;;5052761;22;20052;-77
2023/04/12 09:18:09;;;;;;;6.38;1.42;;;21.50;43.30;;;;;;5039717;28;20555;-78
2023/04/12 09:20:37;;;;;;;7.50;2.53;;;21.30;42.30;;;;;;5023091;28;20045;-78
2023/04/12 09:23:21;;;;;;;10.82;1.48;;;21.30;43.10;;;;;;5042628;28;20053;-78
2023/04/12 09:25:50;;;;;;;9.20;1.45;;;21.40;42.20;;;;;;5040641;28;20052;-78
2023/04/12 09:28:25;;;;;;;8.88;1.67;;;21.80;42.00;;;;;;5021286;28;20140;-81
2023/04/12 09:30:54;;;;;;;12.07;1.75;;;22.00;41.10;;;;;;5036946;28;20053;-78
2023/04/12 09:33:32;;;;;;;5.63;2.17;;;22.20;42.90;;;;;;5024958;28;20049;-81
2023/04/12 09:36:01;;;;;;;14.82;1.98;;;22.20;41.60;;;;;;5029223;28;20135;-88
2023/04/12 09:38:29;;;;;;;4.47;1.65;;;22.40;41.90;;;;;;5030470;28;20072;-86
2023/04/12 09:40:57;;;;;;;5.38;1.50;;;23.10;40.90;;;;;;5031863;28;20049;-85
2023/04/12 09:43:37;;;;;;;6.47;1.65;;;23.80;40.20;;;;;;5061533;28;20053;-86
2023/04/12 09:46:13;;;;;;;7.47;2.00;;;23.80;39.80;;;;;;5025068;28;20040;-84
2023/04/12 09:48:47;;;;;;;12.45;1.90;;;23.90;40.90;;;;;;5026974;28;20062;-79
2023/04/12 09:51:30;;;;;;;5.35;1.80;;;24.10;38.60;;;;;;5045432;28;20144;-79
2023/04/12 09:54:04;;;;;;;3.53;1.40;;;24.60;39.00;;;;;;5032160;28;20482;-80
2023/04/12 09:56:35;;;;;;;7.88;1.52;;;23.90;37.90;;;;;;5026198;28;20060;-81
2023/04/12 09:59:06;;;;;;;6.65;1.30;;;23.90;39.20;;;;;;5026984;28;20057;-79
2023/04/12 10:01:37;;;;;;;5.50;2.10;;;24.20;37.90;;;;;;5026825;28;20298;-76
2023/04/12 10:04:06;;;;;;;4.10;1.42;;;24.50;41.40;;;;;;5025041;28;20041;-73
2023/04/12 10:06:35;;;;;;;3.33;1.30;;;24.30;38.20;;;;;;5027779;28;20106;-78
2023/04/12 10:09:05;;;;;;;6.85;2.05;;;24.10;38.00;;;;;;5030252;28;20052;-77
2023/04/12 10:11:33;;;;;;;6.72;1.70;;;24.30;38.30;;;;;;5046128;28;20063;-76
2023/04/12 10:14:02;;;;;;;7.78;1.80;;;24.90;38.40;;;;;;5046210;28;20056;-79
2023/04/12 10:16:29;;;;;;;4.15;1.23;;;25.00;37.30;;;;;;5046036;28;20053;-79
2023/04/12 10:19:03;;;;;;;9.73;1.70;;;25.70;37.50;;;;;;5029781;28;20052;-78
2023/04/12 10:21:30;;;;;;;8.00;1.50;;;25.70;37.70;;;;;;5026699;28;20147;-79
2023/04/12 10:23:58;;;;;;;4.10;1.75;;;25.20;36.80;;;;;;5050862;28;20060;-79
2023/04/12 10:26:26;;;;;;;9.18;1.75;;;24.90;36.40;;;;;;5047105;28;20828;-79
2023/04/12 10:29:22;;;;;;;6.70;1.92;;;24.60;37.80;;;;;;5027250;28;20505;-87
2023/04/12 10:31:50;;;;;;;8.75;1.60;;;24.60;36.60;;;;;;5033024;28;20151;-85
2023/04/12 10:34:22;;;;;;;5.63;1.40;;;24.40;37.20;;;;;;5039931;28;20048;-84
2023/04/12 10:37:03;;;;;;;7.43;1.80;;;24.50;37.60;;;;;;5035912;28;20045;-81
2023/04/12 10:39:41;;;;;;;4.18;1.30;;;24.60;37.00;;;;;;5031850;28;20427;-79
2023/04/12 10:42:23;;;;;;;7.18;1.63;;;24.50;34.90;;;;;;5025259;28;20053;-76
2023/04/12 10:44:55;;;;;;;7.68;1.73;;;23.00;36.50;;;;;;5026301;28;20122;-75
2023/04/12 10:47:52;;;;;;;;;;;22.40;39.70;;;;;;5028975;28;20045;-76
2023/04/12 10:50:26;;;;;;;4.75;1.55;;;22.00;39.30;;;;;;5038970;28;19925;-74
2023/04/12 10:53:23;;;;;;;7.38;1.90;;;21.50;39.30;;;;;;5037438;28;20044;-73
2023/04/12 10:55:51;;;;;;;6.78;1.75;;;20.70;39.80;;;;;;5045366;28;20067;-75
2023/04/12 10:58:47;;;;;;;8.00;1.95;;;20.00;40.10;;;;;;5053159;28;20050;-74
2023/04/12 11:01:17;;;;;;;6.75;1.83;;;19.20;41.40;;;;;;5026575;28;20045;-74
2023/04/12 11:04:06;;;;;;;9.20;1.83;;;19.10;43.40;;;;;;5046561;28;20048;-74
2023/04/12 11:07:10;;;;;;;9.60;2.03;;;19.50;42.50;;;;;;5030058;28;20049;-79
2023/04/12 11:09:47;;;;;;;4.70;1.52;;;19.00;42.70;;;;;;5051207;28;20071;-81
2023/04/12 11:15:40;;;;;;;8.40;1.58;;;18.80;44.20;;;;;;5086677;22;20127;-75
2023/04/12 11:20:39;;;;;;;10.52;2.70;;;18.40;42.10;;;;;;5066778;28;20048;-81
2023/04/12 11:23:06;;;;;;;5.80;1.80;;;17.90;42.60;;;;;;5069011;28;20047;-81
2023/04/12 11:25:37;;;;;;;6.63;1.83;;;17.60;44.40;;;;;;5069735;28;20052;-81
2023/04/12 11:28:04;;;;;;;6.82;2.13;;;17.60;45.00;;;;;;5052328;28;20064;-80
2023/04/12 11:30:52;;;;;;;11.52;2.00;;;17.50;45.30;;;;;;5066177;28;20048;-81
2023/04/12 11:33:35;;;;;;;4.47;1.60;;;17.60;44.60;;;;;;5066133;28;20044;-81
2023/04/12 11:36:07;;;;;;;9.55;2.20;;;18.10;46.20;;;;;;5069565;28;20064;-81
2023/04/12 11:38:36;;;;;;;10.32;2.38;;;18.90;44.40;;;;;;5053119;28;20045;-81
2023/04/12 11:41:05;;;;;;;8.98;1.80;;;19.40;44.30;;;;;;5048433;28;20485;-81
2023/04/12 11:43:37;;;;;;;8.40;2.05;;;20.30;41.80;;;;;;5051179;28;20044;-81
2023/04/12 11:48:46;;;;;;;7.55;2.25;;;20.40;41.70;;;;;;5039738;22;20050;-74
2023/04/12 11:51:27;;;;;;;16.13;3.17;;;20.20;40.60;;;;;;4999980;28;20076;-75
2023/04/12 11:53:58;;;;;;;10.07;1.98;;;20.00;42.50;;;;;;5002608;28;20050;-74
2023/04/12 11:56:26;;;;;;;5.25;2.17;;;19.90;40.10;;;;;;5004259;28;20167;-74
2023/04/12 11:58:52;;;;;;;7.93;2.25;;;18.70;40.30;;;;;;5002604;28;20042;-75
2023/04/12 12:01:21;;;;;;;6.90;3.25;;;18.10;43.30;;;;;;5006487;28;20077;-74
2023/04/12 12:03:48;;;;;;;5.43;2.10;;;18.10;43.80;;;;;;5034589;28;20086;-74
2023/04/12 12:06:16;;;;;;;9.60;2.17;;;18.10;42.00;;;;;;5003031;28;20050;-74
2023/04/12 12:08:44;;;;;;;12.90;2.55;;;17.90;43.20;;;;;;5006416;28;20085;-74
2023/04/12 12:11:11;;;;;;;6.57;2.15;;;17.80;43.80;;;;;;5007497;28;20053;-74
2023/04/12 12:13:48;;;;;;;12.20;2.10;;;18.30;42.80;;;;;;5003407;28;20076;-74
2023/04/12 12:16:16;;;;;;;8.02;1.80;;;18.30;43.40;;;;;;5033671;28;20060;-76
2023/04/12 12:18:45;;;;;;;7.68;2.10;;;18.30;41.30;;;;;;5006964;28;20038;-75
2023/04/12 12:21:13;;;;;;;5.55;1.73;;;18.10;42.50;;;;;;5006315;28;20046;-75
2023/04/12 12:23:44;;;;;;;12.57;2.83;;;18.10;43.10;;;;;;5004325;28;20152;-75
2023/04/12 12:26:23;;;;;;;7.10;2.28;;;18.10;41.60;;;;;;5039359;28;20449;-75
2023/04/12 12:28:55;;;;;;;9.75;2.58;;;17.30;42.50;;;;;;5002276;28;20562;-75
2023/04/12 12:31:25;;;;;;;12.80;2.78;;;17.00;42.10;;;;;;5039684;28;20364;-81
2023/04/12 12:33:57;;;;;;;8.73;2.03;;;16.60;43.30;;;;;;5042283;28;20510;-82
2023/04/12 12:36:31;;;;;;;8.20;1.80;;;16.50;44.80;;;;;;5013527;28;20172;-81
2023/04/12 12:39:09;;;;;;;8.88;2.20;;;16.40;44.20;;;;;;5047609;28;20041;-81
2023/04/12 12:41:36;;;;;;;15.73;2.70;;;16.10;45.20;;;;;;5008947;28;20056;-82
2023/04/12 12:44:03;;;;;;;7.00;2.22;;;16.00;44.30;;;;;;5011547;28;20298;-81
2023/04/12 12:46:30;;;;;;;6.05;2.20;;;15.70;44.10;;;;;;5010749;28;20473;-81
2023/04/12 12:49:18;;;;;;;8.95;2.85;;;15.50;44.80;;;;;;4998073;28;20041;-82
2023/04/12 12:51:45;;;;;;;7.55;1.95;;;15.20;45.10;;;;;;5007073;28;20113;-81
2023/04/12 12:54:14;;;;;;;11.85;2.40;;;15.00;45.50;;;;;;5017513;28;20047;-81
2023/04/12 12:57:02;;;;;;;18.20;2.08;;;14.90;45.60;;;;;;5018613;28;20049;-82
2023/04/12 12:59:29;;;;;;;10.90;2.30;;;14.70;47.00;;;;;;5015187;28;20107;-81